sensor_id;sensor_type;location;lat;lon;timestamp;P1;durP1;ratioP1;P2;durP2;ratioP2
39888;SDS011;25563;50.844;4.308;2022-10-15T00:00:42;50.70;;;37.45;;
39888;SDS011;25563;50.844;4.308;2022-10-15T00:03:08;48.50;;;36.50;;
39888;SDS011;25563;50.844;4.308;2022-10-15T00:05:37;48.47;;;35.08;;
39888;SDS011;25563;50.844;4.308;2022-10-15T00:08:04;46.50;;;36.30;;
39888;SDS011;25563;50.844;4.308;2022-10-15T00:10:31;46.08;;;34.95;;
39888;SDS011;25563;50.844;4.308;2022-10-15T00:12:57;41.42;;;33.17;;
39888;SDS011;25563;50.844;4.308;2022-10-15T00:15:23;42.17;;;32.15;;
39888;SDS011;25563;50.844;4.308;2022-10-15T00:17:48;45.50;;;32.50;;
39888;SDS011;25563;50.844;4.308;2022-10-15T00:20:14;43.28;;;33.58;;
39888;SDS011;25563;50.844;4.308;2022-10-15T00:22:40;40.90;;;31.70;;
39888;SDS011;25563;50.844;4.308;2022-10-15T00:25:06;45.47;;;31.33;;
39888;SDS011;25563;50.844;4.308;2022-10-15T00:27:33;35.08;;;28.77;;
39888;SDS011;25563;50.844;4.308;2022-10-15T00:29:59;36.95;;;28.17;;
39888;SDS011;25563;50.844;4.308;2022-10-15T00:32:27;40.05;;;27.73;;
39888;SDS011;25563;50.844;4.308;2022-10-15T00:34:54;35.63;;;28.20;;
39888;SDS011;25563;50.844;4.308;2022-10-15T00:37:19;37.50;;;27.48;;
39888;SDS011;25563;50.844;4.308;2022-10-15T00:39:45;31.42;;;25.73;;
39888;SDS011;25563;50.844;4.308;2022-10-15T00:42:12;30.10;;;26.02;;
39888;SDS011;25563;50.844;4.308;2022-10-15T00:44:49;28.10;;;25.23;;
39888;SDS011;25563;50.844;4.308;2022-10-15T00:47:33;29.42;;;25.70;;
39888;SDS011;25563;50.844;4.308;2022-10-15T00:50:23;30.88;;;26.65;;
39888;SDS011;25563;50.844;4.308;2022-10-15T00:55:29;30.65;;;26.27;;
39888;SDS011;25563;50.844;4.308;2022-10-15T00:58:03;32.50;;;25.38;;
39888;SDS011;25563;50.844;4.308;2022-10-15T01:00:31;28.30;;;25.17;;
39888;SDS011;25563;50.844;4.308;2022-10-15T01:02:58;27.08;;;23.50;;
39888;SDS011;25563;50.844;4.308;2022-10-15T01:05:24;28.33;;;24.63;;
39888;SDS011;25563;50.844;4.308;2022-10-15T01:07:50;28.40;;;25.00;;
39888;SDS011;25563;50.844;4.308;2022-10-15T01:10:16;27.02;;;24.15;;
39888;SDS011;25563;50.844;4.308;2022-10-15T01:18:21;30.15;;;24.70;;
39888;SDS011;25563;50.844;4.308;2022-10-15T01:23:40;26.88;;;23.88;;
39888;SDS011;25563;50.844;4.308;2022-10-15T01:32:16;28.33;;;23.35;;
39888;SDS011;25563;50.844;4.308;2022-10-15T01:40:37;27.55;;;24.60;;
39888;SDS011;25563;50.844;4.308;2022-10-15T01:43:12;26.83;;;24.02;;
39888;SDS011;25563;50.844;4.308;2022-10-15T01:48:13;28.67;;;25.67;;
39888;SDS011;25563;50.844;4.308;2022-10-15T01:50:42;31.27;;;25.77;;
39888;SDS011;25563;50.844;4.308;2022-10-15T01:53:17;39.30;;;27.63;;
39888;SDS011;25563;50.844;4.308;2022-10-15T01:55:50;32.60;;;26.35;;
39888;SDS011;25563;50.844;4.308;2022-10-15T01:58:20;36.67;;;27.73;;
39888;SDS011;25563;50.844;4.308;2022-10-15T02:00:47;39.70;;;28.35;;
39888;SDS011;25563;50.844;4.308;2022-10-15T02:03:13;38.67;;;28.67;;
39888;SDS011;25563;50.844;4.308;2022-10-15T02:05:43;36.63;;;27.98;;
39888;SDS011;25563;50.844;4.308;2022-10-15T02:18:35;35.45;;;29.35;;
39888;SDS011;25563;50.844;4.308;2022-10-15T02:21:18;43.65;;;30.08;;
39888;SDS011;25563;50.844;4.308;2022-10-15T02:23:50;50.30;;;30.00;;
39888;SDS011;25563;50.844;4.308;2022-10-15T02:26:43;39.38;;;30.77;;
39888;SDS011;25563;50.844;4.308;2022-10-15T02:29:11;43.10;;;30.92;;
39888;SDS011;25563;50.844;4.308;2022-10-15T02:31:41;40.38;;;31.05;;
39888;SDS011;25563;50.844;4.308;2022-10-15T02:34:10;43.88;;;30.88;;
39888;SDS011;25563;50.844;4.308;2022-10-15T02:36:41;35.50;;;28.13;;
39888;SDS011;25563;50.844;4.308;2022-10-15T02:39:11;34.72;;;29.10;;
39888;SDS011;25563;50.844;4.308;2022-10-15T02:41:40;37.65;;;28.38;;
39888;SDS011;25563;50.844;4.308;2022-10-15T02:44:07;36.28;;;29.00;;
39888;SDS011;25563;50.844;4.308;2022-10-15T02:46:33;38.33;;;28.63;;
39888;SDS011;25563;50.844;4.308;2022-10-15T02:48:59;36.33;;;28.70;;
39888;SDS011;25563;50.844;4.308;2022-10-15T02:51:25;32.05;;;26.90;;
39888;SDS011;25563;50.844;4.308;2022-10-15T02:53:50;37.58;;;28.15;;
39888;SDS011;25563;50.844;4.308;2022-10-15T02:56:16;32.33;;;26.88;;
39888;SDS011;25563;50.844;4.308;2022-10-15T02:58:42;39.50;;;27.85;;
39888;SDS011;25563;50.844;4.308;2022-10-15T03:01:07;31.48;;;26.08;;
39888;SDS011;25563;50.844;4.308;2022-10-15T03:03:33;31.10;;;25.77;;
39888;SDS011;25563;50.844;4.308;2022-10-15T03:05:58;34.85;;;25.17;;
39888;SDS011;25563;50.844;4.308;2022-10-15T03:08:24;28.33;;;25.20;;
39888;SDS011;25563;50.844;4.308;2022-10-15T03:10:50;31.20;;;26.45;;
39888;SDS011;25563;50.844;4.308;2022-10-15T03:13:16;27.80;;;24.48;;
39888;SDS011;25563;50.844;4.308;2022-10-15T03:15:41;29.15;;;25.75;;
39888;SDS011;25563;50.844;4.308;2022-10-15T03:18:07;26.15;;;23.55;;
39888;SDS011;25563;50.844;4.308;2022-10-15T03:20:33;29.33;;;23.67;;
39888;SDS011;25563;50.844;4.308;2022-10-15T03:22:58;30.95;;;25.98;;
39888;SDS011;25563;50.844;4.308;2022-10-15T03:25:24;28.30;;;25.15;;
39888;SDS011;25563;50.844;4.308;2022-10-15T03:27:50;32.60;;;24.98;;
39888;SDS011;25563;50.844;4.308;2022-10-15T03:30:20;31.95;;;25.30;;
39888;SDS011;25563;50.844;4.308;2022-10-15T03:32:45;37.05;;;26.85;;
39888;SDS011;25563;50.844;4.308;2022-10-15T03:35:11;31.85;;;26.02;;
39888;SDS011;25563;50.844;4.308;2022-10-15T03:37:37;32.88;;;26.95;;
39888;SDS011;25563;50.844;4.308;2022-10-15T03:40:03;37.22;;;27.75;;
39888;SDS011;25563;50.844;4.308;2022-10-15T03:42:29;34.45;;;27.95;;
39888;SDS011;25563;50.844;4.308;2022-10-15T03:44:55;33.33;;;27.08;;
39888;SDS011;25563;50.844;4.308;2022-10-15T03:47:20;35.83;;;27.25;;
39888;SDS011;25563;50.844;4.308;2022-10-15T03:49:46;37.78;;;28.80;;
39888;SDS011;25563;50.844;4.308;2022-10-15T03:52:12;36.95;;;28.23;;
39888;SDS011;25563;50.844;4.308;2022-10-15T03:54:38;38.80;;;29.00;;
39888;SDS011;25563;50.844;4.308;2022-10-15T03:57:03;36.97;;;28.27;;
39888;SDS011;25563;50.844;4.308;2022-10-15T03:59:29;32.00;;;26.80;;
39888;SDS011;25563;50.844;4.308;2022-10-15T04:01:55;37.13;;;27.02;;
39888;SDS011;25563;50.844;4.308;2022-10-15T04:04:20;33.63;;;27.08;;
39888;SDS011;25563;50.844;4.308;2022-10-15T04:06:47;30.30;;;24.80;;
39888;SDS011;25563;50.844;4.308;2022-10-15T04:09:13;29.42;;;23.33;;
39888;SDS011;25563;50.844;4.308;2022-10-15T04:11:39;28.80;;;23.08;;
39888;SDS011;25563;50.844;4.308;2022-10-15T04:14:05;30.50;;;22.92;;
39888;SDS011;25563;50.844;4.308;2022-10-15T04:16:31;33.45;;;23.80;;
39888;SDS011;25563;50.844;4.308;2022-10-15T04:18:57;27.38;;;23.83;;
39888;SDS011;25563;50.844;4.308;2022-10-15T04:21:23;27.20;;;23.17;;
39888;SDS011;25563;50.844;4.308;2022-10-15T04:23:49;27.27;;;23.10;;
39888;SDS011;25563;50.844;4.308;2022-10-15T04:26:15;29.83;;;23.15;;
39888;SDS011;25563;50.844;4.308;2022-10-15T04:28:41;33.97;;;24.00;;
39888;SDS011;25563;50.844;4.308;2022-10-15T04:31:07;31.90;;;23.45;;
39888;SDS011;25563;50.844;4.308;2022-10-15T04:33:33;29.70;;;23.65;;
39888;SDS011;25563;50.844;4.308;2022-10-15T04:36:03;26.23;;;21.13;;
39888;SDS011;25563;50.844;4.308;2022-10-15T04:38:35;29.08;;;22.10;;
39888;SDS011;25563;50.844;4.308;2022-10-15T04:41:02;29.48;;;22.33;;
39888;SDS011;25563;50.844;4.308;2022-10-15T04:43:31;29.40;;;22.30;;
39888;SDS011;25563;50.844;4.308;2022-10-15T04:45:57;23.50;;;19.98;;
39888;SDS011;25563;50.844;4.308;2022-10-15T04:48:26;21.10;;;18.90;;
39888;SDS011;25563;50.844;4.308;2022-10-15T04:50:53;23.80;;;19.88;;
39888;SDS011;25563;50.844;4.308;2022-10-15T04:53:19;20.55;;;18.40;;
39888;SDS011;25563;50.844;4.308;2022-10-15T04:55:45;19.52;;;17.60;;
39888;SDS011;25563;50.844;4.308;2022-10-15T04:58:11;22.08;;;17.55;;
39888;SDS011;25563;50.844;4.308;2022-10-15T05:00:37;19.73;;;17.60;;
39888;SDS011;25563;50.844;4.308;2022-10-15T05:03:04;18.48;;;16.65;;
39888;SDS011;25563;50.844;4.308;2022-10-15T05:05:30;19.92;;;15.93;;
39888;SDS011;25563;50.844;4.308;2022-10-15T05:08:03;19.08;;;16.30;;
39888;SDS011;25563;50.844;4.308;2022-10-15T05:10:29;17.58;;;14.73;;
39888;SDS011;25563;50.844;4.308;2022-10-15T05:12:55;19.73;;;15.57;;
39888;SDS011;25563;50.844;4.308;2022-10-15T05:15:21;15.57;;;14.18;;
39888;SDS011;25563;50.844;4.308;2022-10-15T05:17:47;15.20;;;13.60;;
39888;SDS011;25563;50.844;4.308;2022-10-15T05:20:12;14.95;;;13.52;;
39888;SDS011;25563;50.844;4.308;2022-10-15T05:22:38;14.55;;;13.10;;
39888;SDS011;25563;50.844;4.308;2022-10-15T05:25:04;13.75;;;12.43;;
39888;SDS011;25563;50.844;4.308;2022-10-15T05:27:31;14.45;;;13.15;;
39888;SDS011;25563;50.844;4.308;2022-10-15T05:29:56;14.60;;;13.30;;
39888;SDS011;25563;50.844;4.308;2022-10-15T05:32:22;17.30;;;13.52;;
39888;SDS011;25563;50.844;4.308;2022-10-15T05:34:48;14.95;;;13.10;;
39888;SDS011;25563;50.844;4.308;2022-10-15T05:37:14;13.15;;;12.07;;
39888;SDS011;25563;50.844;4.308;2022-10-15T05:39:39;14.13;;;11.90;;
39888;SDS011;25563;50.844;4.308;2022-10-15T05:42:05;12.23;;;11.13;;
39888;SDS011;25563;50.844;4.308;2022-10-15T05:44:33;12.30;;;11.20;;
39888;SDS011;25563;50.844;4.308;2022-10-15T05:46:58;14.85;;;13.30;;
39888;SDS011;25563;50.844;4.308;2022-10-15T05:49:24;13.75;;;12.27;;
39888;SDS011;25563;50.844;4.308;2022-10-15T05:51:50;13.40;;;12.05;;
39888;SDS011;25563;50.844;4.308;2022-10-15T05:54:15;13.48;;;11.57;;
39888;SDS011;25563;50.844;4.308;2022-10-15T05:56:41;14.80;;;11.70;;
39888;SDS011;25563;50.844;4.308;2022-10-15T05:59:07;11.98;;;10.88;;
39888;SDS011;25563;50.844;4.308;2022-10-15T06:01:33;13.60;;;10.60;;
39888;SDS011;25563;50.844;4.308;2022-10-15T06:03:59;12.27;;;10.05;;
39888;SDS011;25563;50.844;4.308;2022-10-15T06:06:25;10.27;;;8.88;;
39888;SDS011;25563;50.844;4.308;2022-10-15T06:08:51;10.13;;;9.15;;
39888;SDS011;25563;50.844;4.308;2022-10-15T06:11:18;11.20;;;9.32;;
39888;SDS011;25563;50.844;4.308;2022-10-15T06:13:45;9.43;;;8.63;;
39888;SDS011;25563;50.844;4.308;2022-10-15T06:16:12;9.80;;;8.95;;
39888;SDS011;25563;50.844;4.308;2022-10-15T06:18:40;9.50;;;8.60;;
39888;SDS011;25563;50.844;4.308;2022-10-15T06:21:06;9.32;;;8.52;;
39888;SDS011;25563;50.844;4.308;2022-10-15T06:23:32;9.13;;;8.27;;
39888;SDS011;25563;50.844;4.308;2022-10-15T06:26:04;15.65;;;12.23;;
39888;SDS011;25563;50.844;4.308;2022-10-15T06:28:32;11.02;;;9.68;;
39888;SDS011;25563;50.844;4.308;2022-10-15T06:30:59;8.77;;;8.07;;
39888;SDS011;25563;50.844;4.308;2022-10-15T06:33:25;8.10;;;7.50;;
39888;SDS011;25563;50.844;4.308;2022-10-15T06:35:59;9.50;;;8.57;;
39888;SDS011;25563;50.844;4.308;2022-10-15T06:38:32;8.73;;;8.02;;
39888;SDS011;25563;50.844;4.308;2022-10-15T06:40:58;9.20;;;8.40;;
39888;SDS011;25563;50.844;4.308;2022-10-15T06:43:24;8.23;;;7.47;;
39888;SDS011;25563;50.844;4.308;2022-10-15T06:45:50;8.45;;;7.85;;
39888;SDS011;25563;50.844;4.308;2022-10-15T06:48:16;8.50;;;7.80;;
39888;SDS011;25563;50.844;4.308;2022-10-15T06:50:42;8.20;;;7.50;;
39888;SDS011;25563;50.844;4.308;2022-10-15T06:53:11;9.10;;;8.27;;
39888;SDS011;25563;50.844;4.308;2022-10-15T06:55:47;8.18;;;7.57;;
39888;SDS011;25563;50.844;4.308;2022-10-15T06:58:21;9.23;;;8.50;;
39888;SDS011;25563;50.844;4.308;2022-10-15T07:01:07;9.18;;;8.32;;
39888;SDS011;25563;50.844;4.308;2022-10-15T07:03:36;18.83;;;8.15;;
39888;SDS011;25563;50.844;4.308;2022-10-15T07:06:04;9.18;;;8.25;;
39888;SDS011;25563;50.844;4.308;2022-10-15T07:08:31;8.98;;;8.18;;
39888;SDS011;25563;50.844;4.308;2022-10-15T07:10:57;9.10;;;8.30;;
39888;SDS011;25563;50.844;4.308;2022-10-15T07:13:25;9.23;;;8.40;;
39888;SDS011;25563;50.844;4.308;2022-10-15T07:15:50;8.93;;;8.25;;
39888;SDS011;25563;50.844;4.308;2022-10-15T07:18:19;10.95;;;10.15;;
39888;SDS011;25563;50.844;4.308;2022-10-15T07:20:45;9.70;;;8.90;;
39888;SDS011;25563;50.844;4.308;2022-10-15T07:23:11;9.05;;;8.27;;
39888;SDS011;25563;50.844;4.308;2022-10-15T07:25:37;9.15;;;8.15;;
39888;SDS011;25563;50.844;4.308;2022-10-15T07:28:04;8.05;;;7.45;;
39888;SDS011;25563;50.844;4.308;2022-10-15T07:30:30;10.65;;;7.25;;
39888;SDS011;25563;50.844;4.308;2022-10-15T07:32:57;7.53;;;6.93;;
39888;SDS011;25563;50.844;4.308;2022-10-15T07:35:23;7.88;;;7.32;;
39888;SDS011;25563;50.844;4.308;2022-10-15T07:37:50;7.90;;;7.35;;
39888;SDS011;25563;50.844;4.308;2022-10-15T07:40:16;7.55;;;6.82;;
39888;SDS011;25563;50.844;4.308;2022-10-15T07:42:42;6.22;;;5.72;;
39888;SDS011;25563;50.844;4.308;2022-10-15T07:45:08;7.15;;;6.55;;
39888;SDS011;25563;50.844;4.308;2022-10-15T07:47:34;7.07;;;6.55;;
39888;SDS011;25563;50.844;4.308;2022-10-15T07:50:00;6.32;;;5.18;;
39888;SDS011;25563;50.844;4.308;2022-10-15T07:52:26;6.40;;;5.90;;
39888;SDS011;25563;50.844;4.308;2022-10-15T07:54:52;9.25;;;5.18;;
39888;SDS011;25563;50.844;4.308;2022-10-15T07:57:17;6.18;;;5.75;;
39888;SDS011;25563;50.844;4.308;2022-10-15T07:59:43;5.38;;;4.97;;
39888;SDS011;25563;50.844;4.308;2022-10-15T08:02:16;4.72;;;4.28;;
39888;SDS011;25563;50.844;4.308;2022-10-15T08:04:42;5.15;;;4.75;;
39888;SDS011;25563;50.844;4.308;2022-10-15T08:07:08;5.50;;;4.50;;
39888;SDS011;25563;50.844;4.308;2022-10-15T08:09:34;5.43;;;5.03;;
39888;SDS011;25563;50.844;4.308;2022-10-15T08:12:03;5.07;;;4.67;;
39888;SDS011;25563;50.844;4.308;2022-10-15T08:14:30;4.75;;;4.35;;
39888;SDS011;25563;50.844;4.308;2022-10-15T08:16:57;4.45;;;4.10;;
39888;SDS011;25563;50.844;4.308;2022-10-15T08:19:23;4.45;;;4.15;;
39888;SDS011;25563;50.844;4.308;2022-10-15T08:21:48;4.07;;;3.67;;
39888;SDS011;25563;50.844;4.308;2022-10-15T08:24:14;4.53;;;3.78;;
39888;SDS011;25563;50.844;4.308;2022-10-15T08:26:40;4.03;;;3.63;;
39888;SDS011;25563;50.844;4.308;2022-10-15T08:29:05;5.93;;;3.63;;
39888;SDS011;25563;50.844;4.308;2022-10-15T08:31:37;4.97;;;3.42;;
39888;SDS011;25563;50.844;4.308;2022-10-15T08:34:04;2.92;;;2.70;;
39888;SDS011;25563;50.844;4.308;2022-10-15T08:36:30;7.40;;;3.10;;
39888;SDS011;25563;50.844;4.308;2022-10-15T08:38:56;4.07;;;3.20;;
39888;SDS011;25563;50.844;4.308;2022-10-15T08:41:25;2.20;;;1.80;;
39888;SDS011;25563;50.844;4.308;2022-10-15T08:43:59;3.47;;;1.92;;
39888;SDS011;25563;50.844;4.308;2022-10-15T08:46:28;3.28;;;2.08;;
39888;SDS011;25563;50.844;4.308;2022-10-15T08:48:59;2.22;;;1.73;;
39888;SDS011;25563;50.844;4.308;2022-10-15T08:51:29;5.78;;;1.85;;
39888;SDS011;25563;50.844;4.308;2022-10-15T08:54:15;1.90;;;0.88;;
39888;SDS011;25563;50.844;4.308;2022-10-15T08:56:43;0.73;;;0.73;;
39888;SDS011;25563;50.844;4.308;2022-10-15T09:01:51;1.15;;;0.68;;
39888;SDS011;25563;50.844;4.308;2022-10-15T09:07:12;2.42;;;1.00;;
39888;SDS011;25563;50.844;4.308;2022-10-15T09:09:46;1.40;;;1.17;;
39888;SDS011;25563;50.844;4.308;2022-10-15T09:15:00;2.78;;;0.85;;
39888;SDS011;25563;50.844;4.308;2022-10-15T09:17:29;1.27;;;1.03;;
39888;SDS011;25563;50.844;4.308;2022-10-15T09:19:57;2.15;;;0.90;;
39888;SDS011;25563;50.844;4.308;2022-10-15T09:22:27;1.10;;;0.95;;
39888;SDS011;25563;50.844;4.308;2022-10-15T09:24:56;1.33;;;0.80;;
39888;SDS011;25563;50.844;4.308;2022-10-15T09:27:55;1.05;;;0.70;;
39888;SDS011;25563;50.844;4.308;2022-10-15T09:30:27;0.90;;;0.73;;
39888;SDS011;25563;50.844;4.308;2022-10-15T09:44:23;0.70;;;0.70;;
39888;SDS011;25563;50.844;4.308;2022-10-15T09:46:52;1.23;;;0.80;;
39888;SDS011;25563;50.844;4.308;2022-10-15T09:57:36;4.55;;;0.50;;
39888;SDS011;25563;50.844;4.308;2022-10-15T10:00:04;0.57;;;0.55;;
39888;SDS011;25563;50.844;4.308;2022-10-15T10:02:33;1.13;;;0.47;;
39888;SDS011;25563;50.844;4.308;2022-10-15T10:05:17;3.17;;;0.70;;
39888;SDS011;25563;50.844;4.308;2022-10-15T10:11:11;1.30;;;0.60;;
39888;SDS011;25563;50.844;4.308;2022-10-15T10:16:13;2.03;;;0.80;;
39888;SDS011;25563;50.844;4.308;2022-10-15T10:18:40;3.55;;;0.90;;
39888;SDS011;25563;50.844;4.308;2022-10-15T10:21:24;3.30;;;1.30;;
39888;SDS011;25563;50.844;4.308;2022-10-15T10:23:55;2.33;;;1.00;;
39888;SDS011;25563;50.844;4.308;2022-10-15T10:26:41;3.35;;;0.93;;
39888;SDS011;25563;50.844;4.308;2022-10-15T10:29:07;1.10;;;0.90;;
39888;SDS011;25563;50.844;4.308;2022-10-15T10:34:09;0.80;;;0.75;;
39888;SDS011;25563;50.844;4.308;2022-10-15T10:36:42;1.45;;;1.10;;
39888;SDS011;25563;50.844;4.308;2022-10-15T10:39:29;1.55;;;1.00;;
39888;SDS011;25563;50.844;4.308;2022-10-15T10:42:04;1.15;;;0.93;;
39888;SDS011;25563;50.844;4.308;2022-10-15T10:47:07;1.30;;;0.90;;
39888;SDS011;25563;50.844;4.308;2022-10-15T10:54:47;1.65;;;1.00;;
39888;SDS011;25563;50.844;4.308;2022-10-15T11:00:16;0.73;;;0.70;;
39888;SDS011;25563;50.844;4.308;2022-10-15T11:03:03;2.35;;;0.90;;
39888;SDS011;25563;50.844;4.308;2022-10-15T11:05:30;5.15;;;1.42;;
39888;SDS011;25563;50.844;4.308;2022-10-15T11:17:02;0.50;;;0.47;;
39888;SDS011;25563;50.844;4.308;2022-10-15T11:19:11;1.00;;;0.70;;
39888;SDS011;25563;50.844;4.308;2022-10-15T11:21:50;0.70;;;0.50;;
39888;SDS011;25563;50.844;4.308;2022-10-15T11:24:45;0.57;;;0.50;;
39888;SDS011;25563;50.844;4.308;2022-10-15T11:33:38;0.85;;;0.65;;
39888;SDS011;25563;50.844;4.308;2022-10-15T11:41:19;0.70;;;0.70;;
39888;SDS011;25563;50.844;4.308;2022-10-15T11:47:01;1.20;;;1.10;;
39888;SDS011;25563;50.844;4.308;2022-10-15T11:57:46;0.63;;;0.63;;
39888;SDS011;25563;50.844;4.308;2022-10-15T12:00:57;1.15;;;0.60;;
39888;SDS011;25563;50.844;4.308;2022-10-15T12:03:26;3.05;;;0.52;;
39888;SDS011;25563;50.844;4.308;2022-10-15T12:05:57;4.25;;;1.08;;
39888;SDS011;25563;50.844;4.308;2022-10-15T12:08:29;1.10;;;0.60;;
39888;SDS011;25563;50.844;4.308;2022-10-15T12:13:44;1.73;;;0.80;;
39888;SDS011;25563;50.844;4.308;2022-10-15T12:21:38;0.50;;;0.40;;
39888;SDS011;25563;50.844;4.308;2022-10-15T12:30:18;1.38;;;0.75;;
39888;SDS011;25563;50.844;4.308;2022-10-15T12:37:41;3.10;;;0.40;;
39888;SDS011;25563;50.844;4.308;2022-10-15T12:45:35;2.63;;;0.50;;
39888;SDS011;25563;50.844;4.308;2022-10-15T12:50:33;1.23;;;0.32;;
39888;SDS011;25563;50.844;4.308;2022-10-15T12:53:02;4.20;;;0.50;;
39888;SDS011;25563;50.844;4.308;2022-10-15T13:00:53;1.83;;;0.40;;
39888;SDS011;25563;50.844;4.308;2022-10-15T13:03:23;2.42;;;0.30;;
39888;SDS011;25563;50.844;4.308;2022-10-15T13:06:43;1.92;;;0.40;;
39888;SDS011;25563;50.844;4.308;2022-10-15T13:11:42;0.75;;;0.35;;
39888;SDS011;25563;50.844;4.308;2022-10-15T13:16:50;5.65;;;2.30;;
39888;SDS011;25563;50.844;4.308;2022-10-15T13:19:18;3.60;;;1.00;;
39888;SDS011;25563;50.844;4.308;2022-10-15T13:22:05;2.05;;;0.73;;
39888;SDS011;25563;50.844;4.308;2022-10-15T13:24:43;2.17;;;0.70;;
39888;SDS011;25563;50.844;4.308;2022-10-15T13:27:29;1.58;;;0.60;;
39888;SDS011;25563;50.844;4.308;2022-10-15T13:29:59;2.08;;;0.60;;
39888;SDS011;25563;50.844;4.308;2022-10-15T13:32:31;1.10;;;0.45;;
39888;SDS011;25563;50.844;4.308;2022-10-15T13:35:01;2.45;;;0.70;;
39888;SDS011;25563;50.844;4.308;2022-10-15T13:37:34;5.60;;;1.30;;
39888;SDS011;25563;50.844;4.308;2022-10-15T13:40:02;1.63;;;0.50;;
39888;SDS011;25563;50.844;4.308;2022-10-15T13:42:29;2.70;;;0.68;;
39888;SDS011;25563;50.844;4.308;2022-10-15T13:44:56;3.55;;;0.68;;
39888;SDS011;25563;50.844;4.308;2022-10-15T13:55:51;1.77;;;1.02;;
39888;SDS011;25563;50.844;4.308;2022-10-15T13:58:34;1.80;;;0.73;;
39888;SDS011;25563;50.844;4.308;2022-10-15T14:01:06;2.60;;;0.70;;
39888;SDS011;25563;50.844;4.308;2022-10-15T14:03:34;1.85;;;0.70;;
39888;SDS011;25563;50.844;4.308;2022-10-15T14:06:47;3.67;;;0.75;;
39888;SDS011;25563;50.844;4.308;2022-10-15T14:08:51;1.73;;;0.60;;
39888;SDS011;25563;50.844;4.308;2022-10-15T14:11:19;1.42;;;0.77;;
39888;SDS011;25563;50.844;4.308;2022-10-15T14:13:49;2.55;;;0.75;;
39888;SDS011;25563;50.844;4.308;2022-10-15T14:18:58;1.48;;;0.60;;
39888;SDS011;25563;50.844;4.308;2022-10-15T14:21:34;2.80;;;0.82;;
39888;SDS011;25563;50.844;4.308;2022-10-15T14:24:10;2.00;;;0.63;;
39888;SDS011;25563;50.844;4.308;2022-10-15T14:26:40;3.08;;;0.73;;
39888;SDS011;25563;50.844;4.308;2022-10-15T14:29:29;0.50;;;0.30;;
39888;SDS011;25563;50.844;4.308;2022-10-15T14:31:59;4.07;;;0.60;;
39888;SDS011;25563;50.844;4.308;2022-10-15T14:34:27;3.30;;;0.60;;
39888;SDS011;25563;50.844;4.308;2022-10-15T14:36:59;1.83;;;0.73;;
39888;SDS011;25563;50.844;4.308;2022-10-15T14:42:03;3.70;;;0.80;;
39888;SDS011;25563;50.844;4.308;2022-10-15T14:44:44;3.45;;;0.88;;
39888;SDS011;25563;50.844;4.308;2022-10-15T14:47:24;2.15;;;0.60;;
39888;SDS011;25563;50.844;4.308;2022-10-15T14:49:53;4.05;;;0.60;;
39888;SDS011;25563;50.844;4.308;2022-10-15T14:54:55;2.00;;;0.90;;
39888;SDS011;25563;50.844;4.308;2022-10-15T14:57:25;2.17;;;0.85;;
39888;SDS011;25563;50.844;4.308;2022-10-15T14:59:54;3.47;;;1.02;;
39888;SDS011;25563;50.844;4.308;2022-10-15T15:02:21;6.53;;;1.00;;
39888;SDS011;25563;50.844;4.308;2022-10-15T15:07:35;3.50;;;1.00;;
39888;SDS011;25563;50.844;4.308;2022-10-15T15:10:02;3.53;;;1.17;;
39888;SDS011;25563;50.844;4.308;2022-10-15T15:12:28;4.85;;;1.27;;
39888;SDS011;25563;50.844;4.308;2022-10-15T15:14:55;3.10;;;1.05;;
39888;SDS011;25563;50.844;4.308;2022-10-15T15:17:23;3.67;;;0.80;;
39888;SDS011;25563;50.844;4.308;2022-10-15T15:19:51;5.50;;;1.55;;
39888;SDS011;25563;50.844;4.308;2022-10-15T15:22:26;9.10;;;1.02;;
39888;SDS011;25563;50.844;4.308;2022-10-15T15:24:57;4.40;;;0.93;;
39888;SDS011;25563;50.844;4.308;2022-10-15T15:27:25;3.20;;;1.10;;
39888;SDS011;25563;50.844;4.308;2022-10-15T15:30:01;2.47;;;1.25;;
39888;SDS011;25563;50.844;4.308;2022-10-15T15:32:28;3.03;;;1.00;;
39888;SDS011;25563;50.844;4.308;2022-10-15T15:34:54;3.55;;;1.70;;
39888;SDS011;25563;50.844;4.308;2022-10-15T15:37:22;2.40;;;0.90;;
39888;SDS011;25563;50.844;4.308;2022-10-15T15:39:49;2.80;;;1.10;;
39888;SDS011;25563;50.844;4.308;2022-10-15T15:42:19;2.83;;;0.85;;
39888;SDS011;25563;50.844;4.308;2022-10-15T15:44:46;5.63;;;1.42;;
39888;SDS011;25563;50.844;4.308;2022-10-15T15:47:12;7.20;;;1.30;;
39888;SDS011;25563;50.844;4.308;2022-10-15T15:49:38;4.22;;;1.63;;
39888;SDS011;25563;50.844;4.308;2022-10-15T15:52:09;2.58;;;0.95;;
39888;SDS011;25563;50.844;4.308;2022-10-15T15:54:42;3.35;;;0.75;;
39888;SDS011;25563;50.844;4.308;2022-10-15T15:57:10;4.68;;;1.17;;
39888;SDS011;25563;50.844;4.308;2022-10-15T15:59:37;11.70;;;0.98;;
39888;SDS011;25563;50.844;4.308;2022-10-15T16:02:03;3.65;;;1.45;;
39888;SDS011;25563;50.844;4.308;2022-10-15T16:04:29;2.58;;;1.05;;
39888;SDS011;25563;50.844;4.308;2022-10-15T16:06:55;1.63;;;0.80;;
39888;SDS011;25563;50.844;4.308;2022-10-15T16:09:22;4.50;;;2.10;;
39888;SDS011;25563;50.844;4.308;2022-10-15T16:11:48;4.18;;;1.60;;
39888;SDS011;25563;50.844;4.308;2022-10-15T16:14:14;4.50;;;1.38;;
39888;SDS011;25563;50.844;4.308;2022-10-15T16:16:40;5.63;;;1.17;;
39888;SDS011;25563;50.844;4.308;2022-10-15T16:19:06;5.72;;;1.42;;
39888;SDS011;25563;50.844;4.308;2022-10-15T16:21:32;2.45;;;0.80;;
39888;SDS011;25563;50.844;4.308;2022-10-15T16:23:58;5.45;;;1.27;;
39888;SDS011;25563;50.844;4.308;2022-10-15T16:26:24;2.33;;;1.08;;
39888;SDS011;25563;50.844;4.308;2022-10-15T16:28:50;4.10;;;1.10;;
39888;SDS011;25563;50.844;4.308;2022-10-15T16:31:20;4.53;;;1.27;;
39888;SDS011;25563;50.844;4.308;2022-10-15T16:33:50;5.82;;;1.20;;
39888;SDS011;25563;50.844;4.308;2022-10-15T16:36:16;3.75;;;1.10;;
39888;SDS011;25563;50.844;4.308;2022-10-15T16:38:43;3.78;;;1.38;;
39888;SDS011;25563;50.844;4.308;2022-10-15T16:41:11;5.18;;;1.15;;
39888;SDS011;25563;50.844;4.308;2022-10-15T16:43:37;4.40;;;1.02;;
39888;SDS011;25563;50.844;4.308;2022-10-15T16:46:03;5.72;;;1.30;;
39888;SDS011;25563;50.844;4.308;2022-10-15T16:48:30;5.82;;;1.45;;
39888;SDS011;25563;50.844;4.308;2022-10-15T16:51:00;7.70;;;1.45;;
39888;SDS011;25563;50.844;4.308;2022-10-15T16:53:28;4.75;;;1.20;;
39888;SDS011;25563;50.844;4.308;2022-10-15T16:55:59;3.80;;;1.73;;
39888;SDS011;25563;50.844;4.308;2022-10-15T16:58:29;7.80;;;1.70;;
39888;SDS011;25563;50.844;4.308;2022-10-15T17:00:59;9.05;;;2.13;;
39888;SDS011;25563;50.844;4.308;2022-10-15T17:03:26;7.40;;;1.63;;
39888;SDS011;25563;50.844;4.308;2022-10-15T17:06:00;3.80;;;1.75;;
39888;SDS011;25563;50.844;4.308;2022-10-15T17:08:28;7.10;;;1.58;;
39888;SDS011;25563;50.844;4.308;2022-10-15T17:11:13;4.20;;;2.05;;
39888;SDS011;25563;50.844;4.308;2022-10-15T17:13:41;5.55;;;2.65;;
39888;SDS011;25563;50.844;4.308;2022-10-15T17:16:08;3.83;;;1.88;;
39888;SDS011;25563;50.844;4.308;2022-10-15T17:18:39;5.72;;;1.85;;
39888;SDS011;25563;50.844;4.308;2022-10-15T17:21:06;13.43;;;1.83;;
39888;SDS011;25563;50.844;4.308;2022-10-15T17:23:34;6.82;;;2.20;;
39888;SDS011;25563;50.844;4.308;2022-10-15T17:26:03;3.65;;;1.50;;
39888;SDS011;25563;50.844;4.308;2022-10-15T17:28:31;2.78;;;1.52;;
39888;SDS011;25563;50.844;4.308;2022-10-15T17:31:01;4.43;;;1.98;;
39888;SDS011;25563;50.844;4.308;2022-10-15T17:33:32;4.15;;;2.00;;
39888;SDS011;25563;50.844;4.308;2022-10-15T17:36:03;2.30;;;1.30;;
39888;SDS011;25563;50.844;4.308;2022-10-15T17:38:30;4.65;;;1.60;;
39888;SDS011;25563;50.844;4.308;2022-10-15T17:40:57;4.75;;;1.83;;